sensor_id;sensor_type;location;lat;lon;timestamp;temperature;humidity
54264;DHT22;40178;53.042;6.406;2023-02-01T00:01:19;5.80;99.90
54264;DHT22;40178;53.042;6.406;2023-02-01T00:03:45;5.70;99.90
54264;DHT22;40178;53.042;6.406;2023-02-01T00:06:11;5.70;99.90
54264;DHT22;40178;53.042;6.406;2023-02-01T00:08:36;5.70;99.90
54264;DHT22;40178;53.042;6.406;2023-02-01T00:11:08;5.70;99.90
54264;DHT22;40178;53.042;6.406;2023-02-01T00:13:35;5.70;99.90
54264;DHT22;40178;53.042;6.406;2023-02-01T00:16:12;5.70;99.90
54264;DHT22;40178;53.042;6.406;2023-02-01T00:18:38;5.80;99.90
54264;DHT22;40178;53.042;6.406;2023-02-01T00:21:04;5.80;99.90
54264;DHT22;40178;53.042;6.406;2023-02-01T00:23:34;5.70;99.90
54264;DHT22;40178;53.042;6.406;2023-02-01T00:26:06;5.70;99.90
54264;DHT22;40178;53.042;6.406;2023-02-01T00:28:32;5.70;99.90
54264;DHT22;40178;53.042;6.406;2023-02-01T00:31:00;5.70;99.90
54264;DHT22;40178;53.042;6.406;2023-02-01T00:33:26;5.70;99.90
54264;DHT22;40178;53.042;6.406;2023-02-01T00:35:56;5.70;99.90
54264;DHT22;40178;53.042;6.406;2023-02-01T00:38:24;5.70;99.90
54264;DHT22;40178;53.042;6.406;2023-02-01T00:40:49;5.70;99.90
54264;DHT22;40178;53.042;6.406;2023-02-01T00:43:15;5.70;99.90
54264;DHT22;40178;53.042;6.406;2023-02-01T00:45:40;5.80;99.90
54264;DHT22;40178;53.042;6.406;2023-02-01T00:48:06;5.70;99.90
54264;DHT22;40178;53.042;6.406;2023-02-01T00:50:31;5.80;99.90
54264;DHT22;40178;53.042;6.406;2023-02-01T00:52:57;5.80;99.90
54264;DHT22;40178;53.042;6.406;2023-02-01T00:55:23;5.80;99.90
54264;DHT22;40178;53.042;6.406;2023-02-01T00:57:48;5.80;99.90
54264;DHT22;40178;53.042;6.406;2023-02-01T01:00:14;5.80;99.90
54264;DHT22;40178;53.042;6.406;2023-02-01T01:02:41;5.70;99.90
54264;DHT22;40178;53.042;6.406;2023-02-01T01:05:07;5.80;99.90
54264;DHT22;40178;53.042;6.406;2023-02-01T01:07:32;5.80;99.90
54264;DHT22;40178;53.042;6.406;2023-02-01T01:09:58;5.80;99.90
54264;DHT22;40178;53.042;6.406;2023-02-01T01:12:24;5.80;99.90
54264;DHT22;40178;53.042;6.406;2023-02-01T01:14:49;5.80;99.90
54264;DHT22;40178;53.042;6.406;2023-02-01T01:17:16;5.80;99.90
54264;DHT22;40178;53.042;6.406;2023-02-01T01:19:41;5.80;99.90
54264;DHT22;40178;53.042;6.406;2023-02-01T01:22:07;5.80;99.90
54264;DHT22;40178;53.042;6.406;2023-02-01T01:24:33;5.80;99.90
54264;DHT22;40178;53.042;6.406;2023-02-01T01:26:58;5.80;99.90
54264;DHT22;40178;53.042;6.406;2023-02-01T01:29:24;5.90;99.90
54264;DHT22;40178;53.042;6.406;2023-02-01T01:31:49;5.90;99.90
54264;DHT22;40178;53.042;6.406;2023-02-01T01:34:15;5.90;99.90
54264;DHT22;40178;53.042;6.406;2023-02-01T01:36:40;5.90;99.90
54264;DHT22;40178;53.042;6.406;2023-02-01T01:39:06;6.00;99.90
54264;DHT22;40178;53.042;6.406;2023-02-01T01:41:32;6.00;99.90
54264;DHT22;40178;53.042;6.406;2023-02-01T01:44:04;5.90;99.90
54264;DHT22;40178;53.042;6.406;2023-02-01T01:46:35;5.90;99.90
54264;DHT22;40178;53.042;6.406;2023-02-01T01:49:12;5.90;99.90
54264;DHT22;40178;53.042;6.406;2023-02-01T01:51:52;5.90;99.90
54264;DHT22;40178;53.042;6.406;2023-02-01T01:54:30;5.80;99.90
54264;DHT22;40178;53.042;6.406;2023-02-01T01:57:04;5.80;99.90
54264;DHT22;40178;53.042;6.406;2023-02-01T01:59:32;5.70;99.90
54264;DHT22;40178;53.042;6.406;2023-02-01T02:02:00;5.70;99.90
54264;DHT22;40178;53.042;6.406;2023-02-01T02:04:26;5.70;99.90
54264;DHT22;40178;53.042;6.406;2023-02-01T02:06:56;5.60;99.90
54264;DHT22;40178;53.042;6.406;2023-02-01T02:09:23;5.60;99.90
54264;DHT22;40178;53.042;6.406;2023-02-01T02:11:48;5.60;99.90
54264;DHT22;40178;53.042;6.406;2023-02-01T02:14:16;5.60;99.90
54264;DHT22;40178;53.042;6.406;2023-02-01T02:20:11;5.60;99.90
54264;DHT22;40178;53.042;6.406;2023-02-01T02:39:06;5.40;99.90
54264;DHT22;40178;53.042;6.406;2023-02-01T02:41:47;5.40;99.90
54264;DHT22;40178;53.042;6.406;2023-02-01T02:47:33;5.40;99.90
54264;DHT22;40178;53.042;6.406;2023-02-01T02:50:08;5.50;99.90
54264;DHT22;40178;53.042;6.406;2023-02-01T02:56:42;5.50;99.90
54264;DHT22;40178;53.042;6.406;2023-02-01T02:59:28;5.50;99.90
54264;DHT22;40178;53.042;6.406;2023-02-01T03:02:13;5.60;99.90
54264;DHT22;40178;53.042;6.406;2023-02-01T03:04:58;5.60;99.90
54264;DHT22;40178;53.042;6.406;2023-02-01T03:10:37;5.60;99.90
54264;DHT22;40178;53.042;6.406;2023-02-01T03:16:40;5.60;99.90
54264;DHT22;40178;53.042;6.406;2023-02-01T03:19:16;5.70;99.90
54264;DHT22;40178;53.042;6.406;2023-02-01T03:22:07;5.70;99.90
54264;DHT22;40178;53.042;6.406;2023-02-01T03:24:44;5.70;99.90
54264;DHT22;40178;53.042;6.406;2023-02-01T03:32:13;5.70;99.90
54264;DHT22;40178;53.042;6.406;2023-02-01T03:34:39;5.70;99.90
54264;DHT22;40178;53.042;6.406;2023-02-01T03:37:10;5.70;99.90
54264;DHT22;40178;53.042;6.406;2023-02-01T03:39:43;5.70;99.90
54264;DHT22;40178;53.042;6.406;2023-02-01T03:42:18;5.70;99.90
54264;DHT22;40178;53.042;6.406;2023-02-01T03:44:52;5.70;99.90
54264;DHT22;40178;53.042;6.406;2023-02-01T03:47:24;5.80;99.90
54264;DHT22;40178;53.042;6.406;2023-02-01T03:50:04;5.80;99.90
54264;DHT22;40178;53.042;6.406;2023-02-01T03:52:34;5.80;99.90
54264;DHT22;40178;53.042;6.406;2023-02-01T03:55:02;5.80;99.90
54264;DHT22;40178;53.042;6.406;2023-02-01T03:57:34;5.80;99.90
54264;DHT22;40178;53.042;6.406;2023-02-01T04:00:09;5.80;99.90
54264;DHT22;40178;53.042;6.406;2023-02-01T04:02:39;5.80;99.90
54264;DHT22;40178;53.042;6.406;2023-02-01T04:05:05;5.90;99.90
54264;DHT22;40178;53.042;6.406;2023-02-01T04:07:31;5.80;99.90
54264;DHT22;40178;53.042;6.406;2023-02-01T04:09:57;5.80;99.90
54264;DHT22;40178;53.042;6.406;2023-02-01T04:12:23;5.80;99.90
54264;DHT22;40178;53.042;6.406;2023-02-01T04:14:48;5.80;99.90
54264;DHT22;40178;53.042;6.406;2023-02-01T04:17:14;5.80;99.90
54264;DHT22;40178;53.042;6.406;2023-02-01T04:19:39;5.70;99.90
54264;DHT22;40178;53.042;6.406;2023-02-01T04:22:05;5.80;99.90
54264;DHT22;40178;53.042;6.406;2023-02-01T04:24:30;5.80;99.90
54264;DHT22;40178;53.042;6.406;2023-02-01T04:26:56;5.90;99.90
54264;DHT22;40178;53.042;6.406;2023-02-01T04:29:21;5.80;99.90
54264;DHT22;40178;53.042;6.406;2023-02-01T04:31:47;5.90;99.90
54264;DHT22;40178;53.042;6.406;2023-02-01T04:34:12;5.90;99.90
54264;DHT22;40178;53.042;6.406;2023-02-01T04:36:38;5.90;99.90
54264;DHT22;40178;53.042;6.406;2023-02-01T04:39:04;5.90;99.90
54264;DHT22;40178;53.042;6.406;2023-02-01T04:41:29;5.90;99.90
54264;DHT22;40178;53.042;6.406;2023-02-01T04:43:55;5.90;99.90
54264;DHT22;40178;53.042;6.406;2023-02-01T04:46:21;5.90;99.90
54264;DHT22;40178;53.042;6.406;2023-02-01T04:48:46;5.90;99.90
54264;DHT22;40178;53.042;6.406;2023-02-01T04:51:12;5.90;99.90
54264;DHT22;40178;53.042;6.406;2023-02-01T04:53:38;5.90;99.90
54264;DHT22;40178;53.042;6.406;2023-02-01T04:56:04;5.90;99.90
54264;DHT22;40178;53.042;6.406;2023-02-01T04:58:30;5.80;99.90
54264;DHT22;40178;53.042;6.406;2023-02-01T05:00:55;5.90;99.90
54264;DHT22;40178;53.042;6.406;2023-02-01T05:03:21;5.80;99.90
54264;DHT22;40178;53.042;6.406;2023-02-01T05:05:50;5.80;99.90
54264;DHT22;40178;53.042;6.406;2023-02-01T05:08:15;5.80;99.90
54264;DHT22;40178;53.042;6.406;2023-02-01T05:10:41;5.80;99.90
54264;DHT22;40178;53.042;6.406;2023-02-01T05:13:08;5.80;99.90
54264;DHT22;40178;53.042;6.406;2023-02-01T05:15:53;5.80;99.90
54264;DHT22;40178;53.042;6.406;2023-02-01T05:18:19;6.50;99.90
54264;DHT22;40178;53.042;6.406;2023-02-01T05:20:44;5.80;99.90
54264;DHT22;40178;53.042;6.406;2023-02-01T05:23:10;5.80;99.90
54264;DHT22;40178;53.042;6.406;2023-02-01T05:25:35;5.80;99.90
54264;DHT22;40178;53.042;6.406;2023-02-01T05:28:01;5.80;99.90
54264;DHT22;40178;53.042;6.406;2023-02-01T05:30:26;5.90;99.90
54264;DHT22;40178;53.042;6.406;2023-02-01T05:32:52;5.90;99.90
54264;DHT22;40178;53.042;6.406;2023-02-01T05:35:19;5.90;99.90
54264;DHT22;40178;53.042;6.406;2023-02-01T05:37:45;5.90;99.90
54264;DHT22;40178;53.042;6.406;2023-02-01T05:40:11;5.90;99.90
54264;DHT22;40178;53.042;6.406;2023-02-01T05:42:36;5.90;99.90
54264;DHT22;40178;53.042;6.406;2023-02-01T05:45:02;5.90;99.90
54264;DHT22;40178;53.042;6.406;2023-02-01T05:47:30;6.00;99.90
54264;DHT22;40178;53.042;6.406;2023-02-01T05:49:56;6.00;99.90
54264;DHT22;40178;53.042;6.406;2023-02-01T05:52:22;6.00;99.90
54264;DHT22;40178;53.042;6.406;2023-02-01T05:54:48;6.00;99.90
54264;DHT22;40178;53.042;6.406;2023-02-01T05:57:14;6.00;99.90
54264;DHT22;40178;53.042;6.406;2023-02-01T05:59:39;6.00;99.90
54264;DHT22;40178;53.042;6.406;2023-02-01T06:02:13;6.10;99.90
54264;DHT22;40178;53.042;6.406;2023-02-01T06:04:38;6.00;99.90
54264;DHT22;40178;53.042;6.406;2023-02-01T06:07:05;6.00;99.90
54264;DHT22;40178;53.042;6.406;2023-02-01T06:09:33;6.00;99.90
54264;DHT22;40178;53.042;6.406;2023-02-01T06:11:59;6.00;99.90
54264;DHT22;40178;53.042;6.406;2023-02-01T06:14:26;6.00;99.90
54264;DHT22;40178;53.042;6.406;2023-02-01T06:16:53;5.90;99.90
54264;DHT22;40178;53.042;6.406;2023-02-01T06:19:19;5.90;99.90
54264;DHT22;40178;53.042;6.406;2023-02-01T06:21:44;5.90;99.90
54264;DHT22;40178;53.042;6.406;2023-02-01T06:24:11;5.80;99.90
54264;DHT22;40178;53.042;6.406;2023-02-01T06:26:36;5.80;99.90
54264;DHT22;40178;53.042;6.406;2023-02-01T06:29:02;5.80;99.90
54264;DHT22;40178;53.042;6.406;2023-02-01T06:31:28;5.80;99.90
54264;DHT22;40178;53.042;6.406;2023-02-01T06:33:54;5.70;99.90
54264;DHT22;40178;53.042;6.406;2023-02-01T06:36:19;5.70;99.90
54264;DHT22;40178;53.042;6.406;2023-02-01T06:38:47;5.70;99.90
54264;DHT22;40178;53.042;6.406;2023-02-01T06:41:13;5.70;99.90
54264;DHT22;40178;53.042;6.406;2023-02-01T06:43:39;5.60;99.90
54264;DHT22;40178;53.042;6.406;2023-02-01T06:46:07;5.60;99.90
54264;DHT22;40178;53.042;6.406;2023-02-01T06:48:33;5.60;99.90
54264;DHT22;40178;53.042;6.406;2023-02-01T06:50:59;5.60;99.90
54264;DHT22;40178;53.042;6.406;2023-02-01T06:53:24;5.70;99.90
54264;DHT22;40178;53.042;6.406;2023-02-01T06:55:57;5.70;99.90
54264;DHT22;40178;53.042;6.406;2023-02-01T06:58:24;5.80;99.90
54264;DHT22;40178;53.042;6.406;2023-02-01T07:00:50;5.80;99.90
54264;DHT22;40178;53.042;6.406;2023-02-01T07:03:16;5.80;99.90
54264;DHT22;40178;53.042;6.406;2023-02-01T07:05:41;5.80;99.90
54264;DHT22;40178;53.042;6.406;2023-02-01T07:08:07;5.80;99.90
54264;DHT22;40178;53.042;6.406;2023-02-01T07:10:34;5.80;99.90
54264;DHT22;40178;53.042;6.406;2023-02-01T07:13:00;5.80;99.90
54264;DHT22;40178;53.042;6.406;2023-02-01T07:15:25;5.90;99.90
54264;DHT22;40178;53.042;6.406;2023-02-01T07:17:53;5.90;99.90
54264;DHT22;40178;53.042;6.406;2023-02-01T07:20:19;6.00;99.90
54264;DHT22;40178;53.042;6.406;2023-02-01T07:22:44;6.00;99.90
54264;DHT22;40178;53.042;6.406;2023-02-01T07:25:10;6.00;99.90
54264;DHT22;40178;53.042;6.406;2023-02-01T07:27:36;6.00;99.90
54264;DHT22;40178;53.042;6.406;2023-02-01T07:30:03;5.90;99.90
54264;DHT22;40178;53.042;6.406;2023-02-01T07:32:29;5.90;99.90
54264;DHT22;40178;53.042;6.406;2023-02-01T07:34:55;6.00;99.90
54264;DHT22;40178;53.042;6.406;2023-02-01T07:37:21;6.00;99.90
54264;DHT22;40178;53.042;6.406;2023-02-01T07:39:47;6.00;99.90
54264;DHT22;40178;53.042;6.406;2023-02-01T07:42:12;6.00;99.90
54264;DHT22;40178;53.042;6.406;2023-02-01T07:44:38;6.00;99.90
54264;DHT22;40178;53.042;6.406;2023-02-01T07:47:03;5.90;99.90
54264;DHT22;40178;53.042;6.406;2023-02-01T07:49:29;5.90;99.90
54264;DHT22;40178;53.042;6.406;2023-02-01T07:51:55;5.90;99.90
54264;DHT22;40178;53.042;6.406;2023-02-01T07:54:21;5.90;99.90
54264;DHT22;40178;53.042;6.406;2023-02-01T07:56:46;5.80;99.90
54264;DHT22;40178;53.042;6.406;2023-02-01T07:59:12;5.80;99.90
54264;DHT22;40178;53.042;6.406;2023-02-01T08:01:37;5.80;99.90
54264;DHT22;40178;53.042;6.406;2023-02-01T08:04:03;5.80;99.90
54264;DHT22;40178;53.042;6.406;2023-02-01T08:06:32;5.80;99.90
54264;DHT22;40178;53.042;6.406;2023-02-01T08:08:58;5.80;99.90
54264;DHT22;40178;53.042;6.406;2023-02-01T08:11:24;5.90;99.90
54264;DHT22;40178;53.042;6.406;2023-02-01T08:13:50;5.90;99.90
54264;DHT22;40178;53.042;6.406;2023-02-01T08:16:18;6.00;99.90
54264;DHT22;40178;53.042;6.406;2023-02-01T08:18:44;5.90;99.90
54264;DHT22;40178;53.042;6.406;2023-02-01T08:21:16;6.00;99.90
54264;DHT22;40178;53.042;6.406;2023-02-01T08:23:42;6.00;99.90
54264;DHT22;40178;53.042;6.406;2023-02-01T08:28:38;6.00;99.90
54264;DHT22;40178;53.042;6.406;2023-02-01T08:31:08;6.10;99.90
54264;DHT22;40178;53.042;6.406;2023-02-01T08:33:34;6.10;99.90
54264;DHT22;40178;53.042;6.406;2023-02-01T08:36:03;6.10;99.90
54264;DHT22;40178;53.042;6.406;2023-02-01T08:38:29;6.10;99.90
54264;DHT22;40178;53.042;6.406;2023-02-01T08:40:55;6.10;99.90
54264;DHT22;40178;53.042;6.406;2023-02-01T08:43:20;6.10;99.90
54264;DHT22;40178;53.042;6.406;2023-02-01T08:45:46;6.10;99.90
54264;DHT22;40178;53.042;6.406;2023-02-01T08:48:12;6.10;99.90
54264;DHT22;40178;53.042;6.406;2023-02-01T08:50:37;6.10;99.90
54264;DHT22;40178;53.042;6.406;2023-02-01T08:53:03;6.10;99.90
54264;DHT22;40178;53.042;6.406;2023-02-01T08:55:28;6.10;99.90
54264;DHT22;40178;53.042;6.406;2023-02-01T08:57:54;6.10;99.90
54264;DHT22;40178;53.042;6.406;2023-02-01T09:00:20;6.10;99.90
54264;DHT22;40178;53.042;6.406;2023-02-01T09:02:45;6.20;99.90
54264;DHT22;40178;53.042;6.406;2023-02-01T09:05:11;6.20;99.90
54264;DHT22;40178;53.042;6.406;2023-02-01T09:07:37;6.20;99.90
54264;DHT22;40178;53.042;6.406;2023-02-01T09:10:03;6.10;99.90
54264;DHT22;40178;53.042;6.406;2023-02-01T09:12:30;6.10;99.90
54264;DHT22;40178;53.042;6.406;2023-02-01T09:14:57;6.20;99.90
54264;DHT22;40178;53.042;6.406;2023-02-01T09:17:25;6.10;99.90
54264;DHT22;40178;53.042;6.406;2023-02-01T09:19:51;6.10;99.90
54264;DHT22;40178;53.042;6.406;2023-02-01T09:22:16;6.10;99.90
54264;DHT22;40178;53.042;6.406;2023-02-01T09:24:42;6.10;99.90
54264;DHT22;40178;53.042;6.406;2023-02-01T09:27:08;6.20;99.90
54264;DHT22;40178;53.042;6.406;2023-02-01T09:29:33;6.20;99.90
54264;DHT22;40178;53.042;6.406;2023-02-01T09:31:59;6.20;99.90
54264;DHT22;40178;53.042;6.406;2023-02-01T09:34:24;6.20;99.90
54264;DHT22;40178;53.042;6.406;2023-02-01T09:36:50;6.20;99.90
54264;DHT22;40178;53.042;6.406;2023-02-01T09:39:15;6.20;99.90
54264;DHT22;40178;53.042;6.406;2023-02-01T09:47:38;6.20;99.90
54264;DHT22;40178;53.042;6.406;2023-02-01T09:50:15;6.10;99.90
54264;DHT22;40178;53.042;6.406;2023-02-01T09:53:05;6.00;99.90
54264;DHT22;40178;53.042;6.406;2023-02-01T09:55:47;6.00;99.90
54264;DHT22;40178;53.042;6.406;2023-02-01T09:58:20;6.00;99.90
54264;DHT22;40178;53.042;6.406;2023-02-01T10:00:53;6.00;99.90
54264;DHT22;40178;53.042;6.406;2023-02-01T10:03:19;6.00;99.90
54264;DHT22;40178;53.042;6.406;2023-02-01T10:09:01;6.10;99.90
54264;DHT22;40178;53.042;6.406;2023-02-01T10:17:10;6.10;99.90
54264;DHT22;40178;53.042;6.406;2023-02-01T10:19:39;6.10;99.90
54264;DHT22;40178;53.042;6.406;2023-02-01T10:22:35;6.10;99.90
54264;DHT22;40178;53.042;6.406;2023-02-01T10:25:13;6.10;99.90
54264;DHT22;40178;53.042;6.406;2023-02-01T10:27:39;6.20;99.90
54264;DHT22;40178;53.042;6.406;2023-02-01T10:30:25;6.20;99.90
54264;DHT22;40178;53.042;6.406;2023-02-01T10:33:05;6.20;99.90
54264;DHT22;40178;53.042;6.406;2023-02-01T10:35:32;6.30;99.90
54264;DHT22;40178;53.042;6.406;2023-02-01T10:38:01;6.30;99.90
54264;DHT22;40178;53.042;6.406;2023-02-01T10:40:28;6.30;99.90
54264;DHT22;40178;53.042;6.406;2023-02-01T10:42:58;6.40;99.90
54264;DHT22;40178;53.042;6.406;2023-02-01T10:45:29;6.50;99.90
54264;DHT22;40178;53.042;6.406;2023-02-01T10:47:57;6.50;99.90
54264;DHT22;40178;53.042;6.406;2023-02-01T10:50:37;6.50;99.90
54264;DHT22;40178;53.042;6.406;2023-02-01T10:53:17;6.60;99.90
54264;DHT22;40178;53.042;6.406;2023-02-01T10:55:51;6.60;99.90
54264;DHT22;40178;53.042;6.406;2023-02-01T10:58:30;6.60;99.90
54264;DHT22;40178;53.042;6.406;2023-02-01T11:01:05;6.60;99.90
54264;DHT22;40178;53.042;6.406;2023-02-01T11:03:44;6.60;99.90
54264;DHT22;40178;53.042;6.406;2023-02-01T11:06:34;6.60;99.90
54264;DHT22;40178;53.042;6.406;2023-02-01T11:09:21;6.60;99.90
54264;DHT22;40178;53.042;6.406;2023-02-01T11:14:27;6.60;99.90
54264;DHT22;40178;53.042;6.406;2023-02-01T11:17:02;6.60;99.90
54264;DHT22;40178;53.042;6.406;2023-02-01T11:19:35;6.60;99.90
54264;DHT22;40178;53.042;6.406;2023-02-01T11:22:01;6.70;99.90
54264;DHT22;40178;53.042;6.406;2023-02-01T11:24:32;6.70;99.90
54264;DHT22;40178;53.042;6.406;2023-02-01T11:27:01;6.80;99.90
54264;DHT22;40178;53.042;6.406;2023-02-01T11:29:35;6.90;99.90
54264;DHT22;40178;53.042;6.406;2023-02-01T11:32:01;7.00;99.90
54264;DHT22;40178;53.042;6.406;2023-02-01T11:34:49;6.90;99.90
54264;DHT22;40178;53.042;6.406;2023-02-01T11:37:24;6.90;99.90
54264;DHT22;40178;53.042;6.406;2023-02-01T11:43:35;6.70;99.90
54264;DHT22;40178;53.042;6.406;2023-02-01T11:45:59;6.80;99.90
54264;DHT22;40178;53.042;6.406;2023-02-01T11:48:28;6.80;99.90
54264;DHT22;40178;53.042;6.406;2023-02-01T11:51:27;6.80;99.90
54264;DHT22;40178;53.042;6.406;2023-02-01T12:02:53;7.00;99.90
54264;DHT22;40178;53.042;6.406;2023-02-01T12:11:29;7.20;99.90
54264;DHT22;40178;53.042;6.406;2023-02-01T12:16:47;7.20;99.90
54264;DHT22;40178;53.042;6.406;2023-02-01T12:19:31;7.20;99.90
54264;DHT22;40178;53.042;6.406;2023-02-01T12:22:35;7.20;99.90
54264;DHT22;40178;53.042;6.406;2023-02-01T12:25:34;7.30;99.90
54264;DHT22;40178;53.042;6.406;2023-02-01T12:31:01;7.50;99.90
54264;DHT22;40178;53.042;6.406;2023-02-01T12:42:03;8.80;99.90
54264;DHT22;40178;53.042;6.406;2023-02-01T12:44:53;7.90;99.90
54264;DHT22;40178;53.042;6.406;2023-02-01T12:47:32;7.90;99.90
54264;DHT22;40178;53.042;6.406;2023-02-01T12:50:18;7.80;99.90
54264;DHT22;40178;53.042;6.406;2023-02-01T12:52:49;7.80;99.90
54264;DHT22;40178;53.042;6.406;2023-02-01T12:57:45;7.70;99.90
54264;DHT22;40178;53.042;6.406;2023-02-01T13:05:22;7.80;99.90
54264;DHT22;40178;53.042;6.406;2023-02-01T13:10:43;7.90;99.90
54264;DHT22;40178;53.042;6.406;2023-02-01T13:13:21;7.90;99.90
54264;DHT22;40178;53.042;6.406;2023-02-01T13:16:06;8.00;99.90
54264;DHT22;40178;53.042;6.406;2023-02-01T13:18:38;7.90;99.90
54264;DHT22;40178;53.042;6.406;2023-02-01T13:21:27;7.90;99.90
54264;DHT22;40178;53.042;6.406;2023-02-01T13:23:54;8.30;99.90
54264;DHT22;40178;53.042;6.406;2023-02-01T13:26:20;7.80;99.90
54264;DHT22;40178;53.042;6.406;2023-02-01T13:29:04;7.80;99.90
54264;DHT22;40178;53.042;6.406;2023-02-01T13:41:08;7.80;99.90
54264;DHT22;40178;53.042;6.406;2023-02-01T13:43:39;7.80;99.90
54264;DHT22;40178;53.042;6.406;2023-02-01T13:46:09;8.30;99.90
54264;DHT22;40178;53.042;6.406;2023-02-01T13:48:48;7.80;99.90
54264;DHT22;40178;53.042;6.406;2023-02-01T13:51:15;7.80;99.90
54264;DHT22;40178;53.042;6.406;2023-02-01T13:53:48;7.80;99.90
54264;DHT22;40178;53.042;6.406;2023-02-01T13:56:19;7.80;99.90
54264;DHT22;40178;53.042;6.406;2023-02-01T13:58:48;8.10;99.90
54264;DHT22;40178;53.042;6.406;2023-02-01T14:04:01;7.70;99.90
54264;DHT22;40178;53.042;6.406;2023-02-01T14:19:29;7.90;99.90
54264;DHT22;40178;53.042;6.406;2023-02-01T14:24:50;7.90;99.90
54264;DHT22;40178;53.042;6.406;2023-02-01T14:27:21;8.00;99.90
54264;DHT22;40178;53.042;6.406;2023-02-01T14:29:56;8.00;99.90
54264;DHT22;40178;53.042;6.406;2023-02-01T14:32:30;8.00;99.90
54264;DHT22;40178;53.042;6.406;2023-02-01T14:34:59;7.90;99.90
54264;DHT22;40178;53.042;6.406;2023-02-01T14:37:27;7.90;99.90
54264;DHT22;40178;53.042;6.406;2023-02-01T14:43:02;7.90;99.90
54264;DHT22;40178;53.042;6.406;2023-02-01T14:50:35;7.80;99.90
54264;DHT22;40178;53.042;6.406;2023-02-01T14:56:00;7.60;99.90
54264;DHT22;40178;53.042;6.406;2023-02-01T15:04:18;7.40;99.90
54264;DHT22;40178;53.042;6.406;2023-02-01T15:06:55;7.40;99.90
54264;DHT22;40178;53.042;6.406;2023-02-01T15:12:01;7.40;99.90
54264;DHT22;40178;53.042;6.406;2023-02-01T15:14:31;7.40;99.90
54264;DHT22;40178;53.042;6.406;2023-02-01T15:16:57;7.40;99.90
54264;DHT22;40178;53.042;6.406;2023-02-01T15:19:26;7.40;99.90
54264;DHT22;40178;53.042;6.406;2023-02-01T15:21:55;7.40;99.90
54264;DHT22;40178;53.042;6.406;2023-02-01T15:24:27;7.40;99.90
54264;DHT22;40178;53.042;6.406;2023-02-01T15:26:54;7.40;99.90
54264;DHT22;40178;53.042;6.406;2023-02-01T15:29:22;7.40;99.90
54264;DHT22;40178;53.042;6.406;2023-02-01T15:31:51;7.40;99.90
54264;DHT22;40178;53.042;6.406;2023-02-01T15:34:19;7.40;99.90
54264;DHT22;40178;53.042;6.406;2023-02-01T15:36:46;7.80;99.90
54264;DHT22;40178;53.042;6.406;2023-02-01T15:39:18;7.40;99.90
54264;DHT22;40178;53.042;6.406;2023-02-01T15:41:57;7.40;99.90
54264;DHT22;40178;53.042;6.406;2023-02-01T15:44:39;7.40;99.90
54264;DHT22;40178;53.042;6.406;2023-02-01T15:47:16;7.40;99.90
54264;DHT22;40178;53.042;6.406;2023-02-01T15:49:45;7.40;99.90
54264;DHT22;40178;53.042;6.406;2023-02-01T15:52:23;7.40;99.90
54264;DHT22;40178;53.042;6.406;2023-02-01T15:54:52;7.30;99.90
54264;DHT22;40178;53.042;6.406;2023-02-01T15:57:25;7.30;99.90
54264;DHT22;40178;53.042;6.406;2023-02-01T16:00:00;7.20;99.90
54264;DHT22;40178;53.042;6.406;2023-02-01T16:02:36;7.20;99.90
54264;DHT22;40178;53.042;6.406;2023-02-01T16:05:06;7.20;99.90
54264;DHT22;40178;53.042;6.406;2023-02-01T16:07:58;7.20;99.90
54264;DHT22;40178;53.042;6.406;2023-02-01T16:10:29;7.20;99.90
54264;DHT22;40178;53.042;6.406;2023-02-01T16:12:55;7.20;99.90
54264;DHT22;40178;53.042;6.406;2023-02-01T16:15:28;7.20;99.90
54264;DHT22;40178;53.042;6.406;2023-02-01T16:17:55;7.70;99.90
54264;DHT22;40178;53.042;6.406;2023-02-01T16:20:21;7.10;99.90
54264;DHT22;40178;53.042;6.406;2023-02-01T16:22:46;7.00;99.90
54264;DHT22;40178;53.042;6.406;2023-02-01T16:25:12;7.00;99.90
54264;DHT22;40178;53.042;6.406;2023-02-01T16:27:38;6.90;99.90
54264;DHT22;40178;53.042;6.406;2023-02-01T16:30:04;6.80;99.90
54264;DHT22;40178;53.042;6.406;2023-02-01T16:32:30;6.80;99.90
54264;DHT22;40178;53.042;6.406;2023-02-01T16:34:56;6.70;99.90
54264;DHT22;40178;53.042;6.406;2023-02-01T16:37:24;6.70;99.90
54264;DHT22;40178;53.042;6.406;2023-02-01T16:39:50;6.70;99.90
54264;DHT22;40178;53.042;6.406;2023-02-01T16:42:16;6.70;99.90
54264;DHT22;40178;53.042;6.406;2023-02-01T16:44:42;6.60;99.90
54264;DHT22;40178;53.042;6.406;2023-02-01T16:47:14;6.60;99.90
54264;DHT22;40178;53.042;6.406;2023-02-01T16:49:42;6.60;99.90
54264;DHT22;40178;53.042;6.406;2023-02-01T16:52:21;6.50;99.90
54264;DHT22;40178;53.042;6.406;2023-02-01T16:54:47;6.50;99.90
54264;DHT22;40178;53.042;6.406;2023-02-01T16:57:15;6.50;99.90
54264;DHT22;40178;53.042;6.406;2023-02-01T16:59:41;6.40;99.90
54264;DHT22;40178;53.042;6.406;2023-02-01T17:02:16;6.40;99.90
54264;DHT22;40178;53.042;6.406;2023-02-01T17:04:42;6.40;99.90
54264;DHT22;40178;53.042;6.406;2023-02-01T17:07:16;6.40;99.90
54264;DHT22;40178;53.042;6.406;2023-02-01T17:09:42;6.40;99.90
54264;DHT22;40178;53.042;6.406;2023-02-01T17:12:22;6.40;99.90
54264;DHT22;40178;53.042;6.406;2023-02-01T17:14:49;6.60;99.90
54264;DHT22;40178;53.042;6.406;2023-02-01T17:17:16;6.40;99.90
54264;DHT22;40178;53.042;6.406;2023-02-01T17:19:43;6.40;99.90
54264;DHT22;40178;53.042;6.406;2023-02-01T17:22:10;6.40;99.90
54264;DHT22;40178;53.042;6.406;2023-02-01T17:24:35;6.40;99.90
54264;DHT22;40178;53.042;6.406;2023-02-01T17:27:01;6.40;99.90
54264;DHT22;40178;53.042;6.406;2023-02-01T17:29:28;6.30;99.90
54264;DHT22;40178;53.042;6.406;2023-02-01T17:31:55;6.30;99.90
54264;DHT22;40178;53.042;6.406;2023-02-01T17:34:21;6.30;99.90
54264;DHT22;40178;53.042;6.406;2023-02-01T17:36:48;6.30;99.90
54264;DHT22;40178;53.042;6.406;2023-02-01T17:39:16;6.30;99.90
54264;DHT22;40178;53.042;6.406;2023-02-01T17:42:01;6.30;99.90
54264;DHT22;40178;53.042;6.406;2023-02-01T17:44:27;6.30;99.90
54264;DHT22;40178;53.042;6.406;2023-02-01T17:46:52;6.30;99.90
54264;DHT22;40178;53.042;6.406;2023-02-01T17:49:19;6.20;99.90
54264;DHT22;40178;53.042;6.406;2023-02-01T17:51:45;6.20;99.90
54264;DHT22;40178;53.042;6.406;2023-02-01T17:54:14;6.20;99.90
54264;DHT22;40178;53.042;6.406;2023-02-01T17:56:41;6.20;99.90
54264;DHT22;40178;53.042;6.406;2023-02-01T17:59:06;6.20;99.90
54264;DHT22;40178;53.042;6.406;2023-02-01T18:01:32;6.10;99.90
54264;DHT22;40178;53.042;6.406;2023-02-01T18:03:58;6.20;99.90
54264;DHT22;40178;53.042;6.406;2023-02-01T18:06:25;6.20;99.90
54264;DHT22;40178;53.042;6.406;2023-02-01T18:08:52;6.20;99.90
54264;DHT22;40178;53.042;6.406;2023-02-01T18:11:23;6.20;99.90
54264;DHT22;40178;53.042;6.406;2023-02-01T18:13:51;6.70;99.90
54264;DHT22;40178;53.042;6.406;2023-02-01T18:16:24;6.10;99.90
54264;DHT22;40178;53.042;6.406;2023-02-01T18:18:50;6.20;99.90
54264;DHT22;40178;53.042;6.406;2023-02-01T18:21:18;6.10;99.90
54264;DHT22;40178;53.042;6.406;2023-02-01T18:23:44;6.10;99.90
54264;DHT22;40178;53.042;6.406;2023-02-01T18:26:15;6.10;99.90
54264;DHT22;40178;53.042;6.406;2023-02-01T18:28:41;6.10;99.90